KAMW

Ames Municipal Airport

Ames, Iowa, USA
METAR KAMW 161753Z AUTO 02006KT 10SM OVC016 M05/M08 A3025 RMK AO2 SLP252 T10501083 11050 21089 58002
Observed Flight Rules
Jan-16 @ 17:53 UTC (32 minutes ago) Marginal Visual Flight Rules
Wind Visibility Clouds
20° at 6 knots 10 miles
  • Overcast at 1,600' AGL
Temperatures Readings
Current -5°C / 23°F
Dewpoint -8°C / 18°F
Humidity 80%
Altimeter 30.25" Hg
Pressure 1025.2 hPa
Elevation 279
METAR KAMW 161753Z AUTO 02006KT 10SM OVC016 M05/M08 A3025 RMK AO2 SLP252 T10501083 11050 21089 58002
Observed Flight Rules
Jan-16 @ 17:53 UTC
(32 minutes ago)
MVFR
Wind Visibility
20° at 6 knots 10 miles
Clouds
  • Overcast at 1,600' AGL
Temperature Dewpoint
-5°C / 23°F -8°C / 18°F
Humidity Altimeter Pressure
80% 30.25" Hg 1025.2 hPa